createdAt,value
2018-08-19T00:00:28.191Z,0.00
2018-08-19T00:02:21.124Z,0.00
2018-08-19T00:03:21.124Z,0.00
2018-08-19T00:05:14.037Z,0.00
2018-08-19T00:06:14.059Z,0.00
2018-08-19T00:08:06.990Z,0.00
2018-08-19T00:09:06.991Z,0.00
2018-08-19T00:10:59.927Z,0.00
2018-08-19T00:11:59.934Z,0.00
2018-08-19T00:13:52.841Z,0.00
2018-08-19T00:14:52.872Z,0.00
2018-08-19T00:16:45.794Z,0.00
2018-08-19T00:17:45.796Z,0.00
2018-08-19T00:19:38.706Z,0.00
2018-08-19T00:20:38.729Z,0.00
2018-08-19T00:22:31.671Z,0.00
2018-08-19T00:23:31.664Z,0.00
2018-08-19T00:25:24.584Z,0.00
2018-08-19T00:26:24.619Z,0.00
2018-08-19T00:28:17.601Z,0.00
2018-08-19T00:29:17.540Z,0.00
2018-08-19T00:31:10.482Z,0.00
2018-08-19T00:32:10.472Z,0.00
2018-08-19T00:34:03.380Z,0.00
2018-08-19T00:35:03.403Z,0.00
2018-08-19T00:36:56.336Z,0.00
2018-08-19T00:37:56.335Z,0.00
2018-08-19T00:39:49.245Z,0.00
2018-08-19T00:40:49.268Z,0.00
2018-08-19T00:42:42.197Z,0.00
2018-08-19T00:43:42.220Z,0.00
2018-08-19T00:45:35.109Z,0.00
2018-08-19T00:46:35.132Z,0.00
2018-08-19T00:48:28.063Z,0.00
2018-08-19T00:49:28.074Z,0.00
2018-08-19T00:51:20.995Z,0.00
2018-08-19T00:52:21.006Z,0.00
2018-08-19T00:54:13.908Z,0.00
2018-08-19T00:55:13.932Z,0.00
2018-08-19T00:57:06.884Z,0.00
2018-08-19T00:58:06.887Z,0.00
2018-08-19T00:59:59.792Z,0.00
2018-08-19T01:00:59.814Z,0.00
2018-08-19T01:02:52.745Z,0.00
2018-08-19T01:03:52.746Z,0.00
2018-08-19T01:05:45.659Z,0.00
2018-08-19T01:06:45.678Z,0.00
2018-08-19T01:08:38.619Z,0.00
2018-08-19T01:09:38.620Z,0.00
2018-08-19T01:11:31.547Z,0.00
2018-08-19T01:12:31.547Z,0.00
2018-08-19T01:14:24.457Z,0.00
2018-08-19T01:15:24.479Z,0.00
2018-08-19T01:17:17.407Z,0.00
2018-08-19T01:18:17.412Z,0.00
2018-08-19T01:20:10.324Z,0.00
2018-08-19T01:21:10.343Z,0.00
2018-08-19T01:23:03.284Z,0.00
2018-08-19T01:24:03.284Z,0.00
2018-08-19T01:25:56.192Z,0.00
2018-08-19T01:26:56.215Z,0.00
2018-08-19T01:28:49.146Z,0.00
2018-08-19T01:29:49.143Z,0.00
2018-08-19T01:31:43.074Z,0.00
2018-08-19T01:32:43.077Z,0.00
2018-08-19T01:34:35.984Z,0.00
2018-08-19T01:35:36.013Z,0.00
2018-08-19T01:37:28.937Z,0.00
2018-08-19T01:38:28.937Z,0.00
2018-08-19T01:40:21.866Z,0.00
2018-08-19T01:41:21.892Z,0.00
2018-08-19T01:43:14.818Z,0.00
2018-08-19T01:44:14.819Z,0.00
2018-08-19T01:46:07.731Z,0.00
2018-08-19T01:47:07.752Z,0.00
2018-08-19T01:49:00.683Z,0.00
2018-08-19T01:50:00.683Z,0.00
2018-08-19T01:51:53.614Z,0.00
2018-08-19T01:52:53.614Z,0.00
2018-08-19T01:54:46.522Z,0.00
2018-08-19T01:55:46.543Z,0.00
2018-08-19T01:57:39.475Z,0.00
2018-08-19T01:58:39.524Z,0.00
2018-08-19T02:00:32.391Z,0.00
2018-08-19T02:01:32.414Z,0.00
2018-08-19T02:03:25.343Z,0.00
2018-08-19T02:04:25.345Z,0.00
2018-08-19T02:06:18.251Z,0.00
2018-08-19T02:07:18.274Z,0.00
2018-08-19T02:09:11.202Z,0.00
2018-08-19T02:10:11.202Z,0.00
2018-08-19T02:12:04.135Z,0.00
2018-08-19T02:13:04.135Z,0.00
2018-08-19T02:14:57.046Z,0.00
2018-08-19T02:15:57.068Z,0.00
2018-08-19T02:17:49.991Z,0.00
2018-08-19T02:18:49.993Z,0.00
2018-08-19T02:20:42.973Z,0.00
2018-08-19T02:21:42.922Z,0.00
2018-08-19T02:23:35.870Z,0.00
2018-08-19T02:24:35.853Z,0.00
2018-08-19T02:26:28.782Z,0.00
2018-08-19T02:27:28.779Z,0.00
2018-08-19T02:29:21.719Z,0.00
2018-08-19T02:30:21.709Z,0.00
2018-08-19T02:32:14.652Z,0.00
2018-08-19T02:33:14.638Z,0.00
2018-08-19T02:35:07.549Z,0.00
2018-08-19T02:36:07.569Z,0.00
2018-08-19T02:38:00.512Z,0.00
2018-08-19T02:39:00.499Z,0.00
2018-08-19T02:40:53.415Z,0.00
2018-08-19T02:41:53.440Z,0.00
2018-08-19T02:43:46.372Z,0.00
2018-08-19T02:44:46.364Z,0.00
2018-08-19T02:46:39.271Z,0.00
2018-08-19T02:47:39.291Z,0.00
2018-08-19T02:49:32.221Z,0.00
2018-08-19T02:50:32.234Z,0.00
2018-08-19T02:52:25.156Z,0.00
2018-08-19T02:53:25.161Z,0.00
2018-08-19T02:55:18.065Z,0.00
2018-08-19T02:56:18.097Z,0.00
2018-08-19T02:58:11.012Z,0.00
2018-08-19T02:59:11.025Z,0.00
2018-08-19T03:01:03.917Z,0.00
2018-08-19T03:02:03.940Z,0.00
2018-08-19T03:03:56.872Z,0.00
2018-08-19T03:04:56.872Z,0.00
2018-08-19T03:06:49.792Z,0.00
2018-08-19T03:07:49.817Z,0.00
2018-08-19T03:09:42.745Z,0.00
2018-08-19T03:10:42.750Z,0.00
2018-08-19T03:12:35.674Z,0.00
2018-08-19T03:13:35.675Z,0.00
2018-08-19T03:15:28.585Z,0.00
2018-08-19T03:16:28.614Z,0.00
2018-08-19T03:18:21.538Z,0.00
2018-08-19T03:19:21.538Z,0.00
2018-08-19T03:21:14.450Z,0.00
2018-08-19T03:22:14.472Z,0.00
2018-08-19T03:24:07.399Z,0.00
2018-08-19T03:25:07.401Z,0.00
2018-08-19T03:27:00.311Z,0.00
2018-08-19T03:28:00.333Z,0.00
2018-08-19T03:29:53.259Z,0.00
2018-08-19T03:30:53.257Z,0.00
2018-08-19T03:32:46.192Z,0.00
2018-08-19T03:33:46.193Z,0.00
2018-08-19T03:35:39.099Z,0.00
2018-08-19T03:36:39.117Z,0.00
2018-08-19T03:38:32.046Z,0.00
2018-08-19T03:39:32.049Z,0.00
2018-08-19T03:41:24.952Z,0.00
2018-08-19T03:42:24.972Z,0.00
2018-08-19T03:44:17.904Z,4.00
2018-08-19T03:45:17.902Z,4.00
2018-08-19T03:47:10.809Z,0.00
2018-08-19T03:48:10.828Z,4.00
2018-08-19T03:50:03.756Z,8.00
2018-08-19T03:51:03.756Z,4.00
2018-08-19T03:52:56.684Z,8.00
2018-08-19T03:53:56.680Z,8.00
2018-08-19T03:55:49.596Z,12.00
2018-08-19T03:56:49.611Z,16.00
2018-08-19T03:58:42.538Z,20.00
2018-08-19T03:59:42.538Z,24.00
2018-08-19T04:01:35.444Z,32.00
2018-08-19T04:02:35.464Z,36.00
2018-08-19T04:04:28.409Z,40.00
2018-08-19T04:05:28.391Z,48.00
2018-08-19T04:07:21.317Z,60.00
2018-08-19T04:08:21.322Z,64.00
2018-08-19T04:10:14.256Z,84.00
2018-08-19T04:11:14.250Z,92.00
2018-08-19T04:13:07.179Z,112.00
2018-08-19T04:14:07.180Z,124.00
2018-08-19T04:16:00.088Z,144.00
2018-08-19T04:17:00.107Z,160.00
2018-08-19T04:18:53.032Z,196.00
2018-08-19T04:19:53.032Z,212.00
2018-08-19T04:21:45.936Z,252.00
2018-08-19T04:22:45.957Z,280.00
2018-08-19T04:24:38.889Z,328.00
2018-08-19T04:25:38.894Z,360.00
2018-08-19T04:27:31.790Z,428.00
2018-08-19T04:28:31.817Z,460.00
2018-08-19T04:30:24.737Z,532.00
2018-08-19T04:31:24.754Z,576.00
2018-08-19T04:33:17.666Z,656.00
2018-08-19T04:34:17.722Z,708.00
2018-08-19T04:36:10.572Z,796.00
2018-08-19T04:37:10.597Z,840.00
2018-08-19T04:39:03.523Z,940.00
2018-08-19T04:40:03.520Z,1000.00
2018-08-19T04:41:56.450Z,1104.00
2018-08-19T04:42:56.473Z,1164.00
2018-08-19T04:44:49.403Z,1276.00
2018-08-19T04:45:49.402Z,1340.00
2018-08-19T04:47:42.313Z,1456.00
2018-08-19T04:48:42.333Z,1516.00
2018-08-19T04:50:35.262Z,1632.00
2018-08-19T04:51:35.261Z,1692.00
2018-08-19T04:53:28.202Z,1816.00
2018-08-19T04:54:28.204Z,1880.00
2018-08-19T04:56:21.110Z,1996.00
2018-08-19T04:57:21.128Z,2052.00
2018-08-19T04:59:14.053Z,2164.00
2018-08-19T05:00:14.054Z,2216.00
2018-08-19T05:02:07.203Z,2320.00
2018-08-19T05:03:07.160Z,2372.00
2018-08-19T05:05:00.086Z,2456.00
2018-08-19T05:06:00.090Z,2504.00
2018-08-19T05:07:53.053Z,2608.00
2018-08-19T05:08:53.016Z,2660.00
2018-08-19T05:10:45.970Z,2756.00
2018-08-19T05:11:45.948Z,2812.00
2018-08-19T05:13:38.896Z,2940.00
2018-08-19T05:14:38.880Z,3020.00
2018-08-19T05:16:31.822Z,3164.00
2018-08-19T05:17:31.808Z,3236.00
2018-08-19T05:19:24.749Z,3344.00
2018-08-19T05:20:24.736Z,3384.00
2018-08-19T05:22:17.669Z,3512.00
2018-08-19T05:23:17.668Z,3604.00
2018-08-19T05:25:10.594Z,3800.00
2018-08-19T05:26:10.594Z,3888.00
2018-08-19T05:28:03.505Z,3976.00
2018-08-19T05:29:03.526Z,4040.00
2018-08-19T05:30:56.457Z,4192.00
2018-08-19T05:31:56.455Z,4300.00
2018-08-19T05:33:49.396Z,4336.00
2018-08-19T05:34:49.395Z,4372.00
2018-08-19T05:36:42.329Z,4484.00
2018-08-19T05:37:42.333Z,4544.00
2018-08-19T05:39:35.258Z,4652.00
2018-08-19T05:40:35.266Z,4720.00
2018-08-19T05:42:28.167Z,4864.00
2018-08-19T05:43:28.187Z,4872.00
2018-08-19T05:45:21.154Z,4920.00
2018-08-19T05:46:21.137Z,4948.00
2018-08-19T05:48:14.055Z,5020.00
2018-08-19T05:49:14.082Z,5088.00
2018-08-19T05:51:07.022Z,5240.00
2018-08-19T05:52:07.011Z,5324.00
2018-08-19T05:53:59.955Z,5532.00
2018-08-19T05:54:59.951Z,5636.00
2018-08-19T05:56:52.861Z,5708.00
2018-08-19T05:57:52.887Z,5728.00
2018-08-19T05:59:45.981Z,5900.00
2018-08-19T06:00:45.981Z,5964.00
2018-08-19T06:02:38.892Z,6032.00
2018-08-19T06:03:38.914Z,6092.00
2018-08-19T06:05:31.981Z,6208.00
2018-08-19T06:06:32.049Z,6260.00
2018-08-19T06:08:24.896Z,6672.00
2018-08-19T06:09:24.917Z,8220.00
2018-08-19T06:11:17.984Z,10608.00
2018-08-19T06:12:17.990Z,10704.00
2018-08-19T06:14:10.930Z,11204.00
2018-08-19T06:15:10.931Z,11412.00
2018-08-19T06:17:03.846Z,11756.00
2018-08-19T06:18:03.872Z,12064.00
2018-08-19T06:19:56.810Z,12068.00
2018-08-19T06:20:56.813Z,12044.00
2018-08-19T06:22:49.729Z,12328.00
2018-08-19T06:23:49.757Z,12644.00
2018-08-19T06:25:43.544Z,13212.00
2018-08-19T06:26:42.697Z,13416.00
2018-08-19T06:28:35.613Z,14128.00
2018-08-19T06:29:35.639Z,14020.00
2018-08-19T06:31:28.588Z,14472.00
2018-08-19T06:32:28.594Z,14784.00
2018-08-19T06:34:21.534Z,15232.00
2018-08-19T06:35:21.541Z,15200.00
2018-08-19T06:37:14.459Z,15456.00
2018-08-19T06:38:14.485Z,15840.00
2018-08-19T06:40:07.426Z,16256.00
2018-08-19T06:41:07.433Z,16320.00
2018-08-19T06:43:00.414Z,16448.00
2018-08-19T06:44:00.387Z,16512.00
2018-08-19T06:45:53.348Z,17280.00
2018-08-19T06:46:53.335Z,17792.00
2018-08-19T06:48:46.258Z,17696.00
2018-08-19T06:49:46.287Z,17568.00
2018-08-19T06:51:39.235Z,17216.00
2018-08-19T06:52:39.239Z,17152.00
2018-08-19T06:54:32.180Z,18016.00
2018-08-19T06:55:32.205Z,18272.00
2018-08-19T06:57:25.109Z,18240.00
2018-08-19T06:58:25.142Z,17824.00
2018-08-19T07:00:18.083Z,18368.00
2018-08-19T07:01:18.091Z,19168.00
2018-08-19T07:03:11.047Z,12956.00
2018-08-19T07:04:11.067Z,8368.00
2018-08-19T07:06:04.028Z,7644.00
2018-08-19T07:07:04.020Z,7676.00
2018-08-19T07:08:56.940Z,7728.00
2018-08-19T07:09:56.970Z,7736.00
2018-08-19T07:11:49.918Z,7744.00
2018-08-19T07:12:49.921Z,7768.00
2018-08-19T07:14:42.877Z,7896.00
2018-08-19T07:15:42.870Z,7992.00
2018-08-19T07:17:35.791Z,8156.00
2018-08-19T07:18:35.824Z,8256.00
2018-08-19T07:20:28.759Z,8368.00
2018-08-19T07:21:28.768Z,8320.00
2018-08-19T07:23:21.691Z,8192.00
2018-08-19T07:24:21.745Z,8076.00
2018-08-19T07:26:14.824Z,7924.00
2018-08-19T07:27:14.667Z,7876.00
2018-08-19T07:29:07.594Z,7848.00
2018-08-19T07:30:07.619Z,7888.00
2018-08-19T07:32:00.572Z,7968.00
2018-08-19T07:33:00.567Z,7996.00
2018-08-19T07:34:53.687Z,8068.00
2018-08-19T07:35:53.678Z,8060.00
2018-08-19T07:37:46.610Z,7948.00
2018-08-19T07:38:46.641Z,7904.00
2018-08-19T07:40:39.585Z,7796.00
2018-08-19T07:41:39.586Z,7752.00
2018-08-19T07:43:32.503Z,7676.00
2018-08-19T07:44:32.556Z,7684.00
2018-08-19T07:46:25.469Z,7616.00
2018-08-19T07:47:25.476Z,7620.00
2018-08-19T07:49:18.396Z,7576.00
2018-08-19T07:50:18.422Z,7572.00
2018-08-19T07:52:11.362Z,7564.00
2018-08-19T07:53:11.369Z,7568.00
2018-08-19T07:55:04.338Z,7668.00
2018-08-19T07:56:04.315Z,7740.00
2018-08-19T07:57:57.243Z,7760.00
2018-08-19T07:58:57.270Z,7716.00
2018-08-19T08:00:50.217Z,7700.00
2018-08-19T08:01:50.218Z,7672.00
2018-08-19T08:03:43.152Z,7544.00
2018-08-19T08:04:43.171Z,7468.00
2018-08-19T08:06:36.132Z,7412.00
2018-08-19T08:07:36.120Z,7364.00
2018-08-19T08:09:29.064Z,7304.00
2018-08-19T08:10:29.068Z,7284.00
2018-08-19T08:12:22.092Z,7228.00
2018-08-19T08:13:22.120Z,7132.00
2018-08-19T08:15:15.020Z,6944.00
2018-08-19T08:16:15.058Z,6852.00
2018-08-19T08:18:08.013Z,6768.00
2018-08-19T08:19:07.994Z,6748.00
2018-08-19T08:21:00.967Z,6696.00
2018-08-19T08:22:00.956Z,6684.00
2018-08-19T08:23:53.877Z,6964.00
2018-08-19T08:24:53.901Z,7364.00
2018-08-19T08:26:47.014Z,6772.00
2018-08-19T08:27:47.014Z,6596.00
2018-08-19T08:29:39.937Z,6496.00
2018-08-19T08:30:39.960Z,6456.00
2018-08-19T08:32:32.911Z,6428.00
2018-08-19T08:33:32.910Z,6404.00
2018-08-19T08:35:25.838Z,6464.00
2018-08-19T08:36:25.866Z,6180.00
2018-08-19T08:38:18.813Z,6280.00
2018-08-19T08:39:18.927Z,6464.00
2018-08-19T08:41:11.764Z,6304.00
2018-08-19T08:42:11.767Z,6772.00
2018-08-19T08:44:04.682Z,7056.00
2018-08-19T08:45:04.709Z,7264.00
2018-08-19T08:46:57.656Z,7712.00
2018-08-19T08:47:57.716Z,7592.00
2018-08-19T08:49:50.604Z,7580.00
2018-08-19T08:50:50.637Z,7636.00
2018-08-19T08:52:43.572Z,8260.00
2018-08-19T08:53:43.570Z,9064.00
2018-08-19T08:55:36.511Z,8444.00
2018-08-19T08:56:36.538Z,7648.00
2018-08-19T08:58:29.476Z,7656.00
2018-08-19T08:59:29.486Z,8644.00
2018-08-19T09:01:22.430Z,10168.00
2018-08-19T09:02:22.431Z,9956.00
2018-08-19T09:04:15.350Z,8584.00
2018-08-19T09:05:15.379Z,7680.00
2018-08-19T09:07:08.323Z,7604.00
2018-08-19T09:08:08.326Z,8084.00
2018-08-19T09:10:01.244Z,7476.00
2018-08-19T09:11:01.271Z,7432.00
2018-08-19T09:12:54.214Z,7444.00
2018-08-19T09:13:54.325Z,7572.00
2018-08-19T09:15:47.140Z,6620.00
2018-08-19T09:16:47.167Z,6440.00
2018-08-19T09:18:40.109Z,6404.00
2018-08-19T09:19:40.116Z,6308.00
2018-08-19T09:21:33.057Z,6416.00
2018-08-19T09:22:33.068Z,6620.00
2018-08-19T09:24:26.208Z,6328.00
2018-08-19T09:25:26.239Z,6224.00
2018-08-19T09:27:19.174Z,6488.00
2018-08-19T09:28:19.186Z,6664.00
2018-08-19T09:30:12.117Z,6252.00
2018-08-19T09:31:12.142Z,6220.00
2018-08-19T09:33:05.136Z,5932.00
2018-08-19T09:34:05.091Z,5796.00
2018-08-19T09:35:58.017Z,5608.00
2018-08-19T09:36:58.042Z,5852.00
2018-08-19T09:38:50.992Z,6508.00
2018-08-19T09:39:50.992Z,6532.00
2018-08-19T09:41:43.940Z,7620.00
2018-08-19T09:42:43.941Z,7412.00
2018-08-19T09:44:36.866Z,6184.00
2018-08-19T09:45:36.892Z,6116.00
2018-08-19T09:47:29.907Z,6392.00
2018-08-19T09:48:29.853Z,6700.00
2018-08-19T09:50:22.777Z,6792.00
2018-08-19T09:51:22.800Z,7028.00
2018-08-19T09:53:15.745Z,6304.00
2018-08-19T09:54:15.782Z,5832.00
2018-08-19T09:56:08.678Z,7204.00
2018-08-19T09:57:08.704Z,7064.00
2018-08-19T09:59:01.651Z,7692.00
2018-08-19T10:00:01.643Z,7628.00
2018-08-19T10:01:54.597Z,7648.00
2018-08-19T10:02:54.598Z,6520.00
2018-08-19T10:04:47.523Z,5868.00
2018-08-19T10:05:47.554Z,6692.00
2018-08-19T10:07:40.528Z,6428.00
2018-08-19T10:08:40.511Z,6172.00
2018-08-19T10:10:33.432Z,6704.00
2018-08-19T10:11:33.469Z,6356.00
2018-08-19T10:13:26.403Z,6124.00
2018-08-19T10:14:26.405Z,5696.00
2018-08-19T10:16:19.338Z,5356.00
2018-08-19T10:17:19.367Z,5428.00
2018-08-19T10:19:12.315Z,5192.00
2018-08-19T10:20:12.426Z,5340.00
2018-08-19T10:22:05.491Z,5408.00
2018-08-19T10:23:05.268Z,5480.00
2018-08-19T10:24:58.188Z,5224.00
2018-08-19T10:25:58.219Z,5816.00
2018-08-19T10:27:51.166Z,5612.00
2018-08-19T10:28:51.168Z,5456.00
2018-08-19T10:30:44.091Z,5384.00
2018-08-19T10:31:44.117Z,5312.00
2018-08-19T10:33:37.056Z,5160.00
2018-08-19T10:34:37.069Z,5156.00
2018-08-19T10:36:29.991Z,5116.00
2018-08-19T10:37:30.013Z,5000.00
2018-08-19T10:39:22.954Z,4876.00
2018-08-19T10:40:22.960Z,4860.00
2018-08-19T10:42:15.904Z,4828.00
2018-08-19T10:43:15.909Z,4796.00
2018-08-19T10:45:08.965Z,4804.00
2018-08-19T10:46:09.006Z,5164.00
2018-08-19T10:48:01.939Z,4820.00
2018-08-19T10:49:01.952Z,4736.00
2018-08-19T10:50:54.861Z,4724.00
2018-08-19T10:51:54.888Z,4684.00
2018-08-19T10:53:47.835Z,4484.00
2018-08-19T10:54:47.838Z,4556.00
2018-08-19T10:56:40.770Z,4816.00
2018-08-19T10:57:40.796Z,4920.00
2018-08-19T10:59:33.735Z,4704.00
2018-08-19T11:00:33.743Z,4672.00
2018-08-19T11:02:26.687Z,4560.00
2018-08-19T11:03:26.694Z,4592.00
2018-08-19T11:05:19.623Z,4480.00
2018-08-19T11:06:19.645Z,4412.00
2018-08-19T11:08:12.588Z,4404.00
2018-08-19T11:09:12.613Z,4384.00
2018-08-19T11:11:05.513Z,4304.00
2018-08-19T11:12:05.542Z,4256.00
2018-08-19T11:13:58.481Z,4176.00
2018-08-19T11:14:58.489Z,4164.00
2018-08-19T11:16:51.405Z,4160.00
2018-08-19T11:17:51.437Z,4204.00
2018-08-19T11:19:44.381Z,4164.00
2018-08-19T11:20:44.382Z,4148.00
2018-08-19T11:22:37.334Z,4112.00
2018-08-19T11:23:37.333Z,4080.00
2018-08-19T11:25:30.266Z,4036.00
2018-08-19T11:26:30.294Z,4028.00
2018-08-19T11:28:23.221Z,4012.00
2018-08-19T11:29:23.232Z,3976.00
2018-08-19T11:31:16.162Z,3968.00
2018-08-19T11:32:16.182Z,3928.00
2018-08-19T11:34:09.135Z,3924.00
2018-08-19T11:35:09.143Z,3928.00
2018-08-19T11:37:02.053Z,3952.00
2018-08-19T11:38:02.096Z,3940.00
2018-08-19T11:39:56.075Z,3912.00
2018-08-19T11:40:56.032Z,3872.00
2018-08-19T11:42:48.982Z,3836.00
2018-08-19T11:43:48.984Z,3840.00
2018-08-19T11:45:41.906Z,3816.00
2018-08-19T11:46:41.935Z,3804.00
2018-08-19T11:48:34.908Z,3832.00
2018-08-19T11:49:34.886Z,3832.00
2018-08-19T11:51:27.805Z,3824.00
2018-08-19T11:52:27.841Z,3828.00
2018-08-19T11:54:20.819Z,3852.00
2018-08-19T11:55:20.875Z,3852.00
2018-08-19T11:57:13.771Z,3828.00
2018-08-19T11:58:13.788Z,3812.00
2018-08-19T12:00:06.713Z,3816.00
2018-08-19T12:01:06.755Z,3812.00
2018-08-19T12:02:59.672Z,3832.00
2018-08-19T12:03:59.693Z,3848.00
2018-08-19T12:05:52.626Z,3856.00
2018-08-19T12:06:52.650Z,3856.00
2018-08-19T12:08:45.586Z,3868.00
2018-08-19T12:09:45.720Z,3860.00
2018-08-19T12:11:38.527Z,3856.00
2018-08-19T12:12:38.573Z,3872.00
2018-08-19T12:14:32.015Z,3896.00
2018-08-19T12:15:32.024Z,3900.00
2018-08-19T12:17:24.955Z,3908.00
2018-08-19T12:18:24.982Z,3904.00
2018-08-19T12:20:17.923Z,3944.00
2018-08-19T12:21:17.931Z,3964.00
2018-08-19T12:23:10.873Z,3988.00
2018-08-19T12:24:10.985Z,4000.00
2018-08-19T12:26:03.952Z,4000.00
2018-08-19T12:27:04.029Z,4000.00
2018-08-19T12:28:56.923Z,4012.00
2018-08-19T12:29:56.931Z,4024.00
2018-08-19T12:31:49.851Z,4016.00
2018-08-19T12:32:49.879Z,4012.00
2018-08-19T12:34:42.849Z,3984.00
2018-08-19T12:35:42.828Z,3976.00
2018-08-19T12:37:36.777Z,4004.00
2018-08-19T12:38:36.776Z,4000.00
2018-08-19T12:40:29.723Z,3980.00
2018-08-19T12:41:29.726Z,3980.00
2018-08-19T12:43:22.704Z,3988.00
2018-08-19T12:44:22.676Z,3972.00
2018-08-19T12:46:15.604Z,3964.00
2018-08-19T12:47:15.630Z,3980.00
2018-08-19T12:49:08.573Z,4028.00
2018-08-19T12:50:08.643Z,4036.00
2018-08-19T12:52:01.505Z,4024.00
2018-08-19T12:53:01.531Z,4032.00
2018-08-19T12:54:54.482Z,4048.00
2018-08-19T12:55:54.526Z,4040.00
2018-08-19T12:57:47.417Z,4032.00
2018-08-19T12:58:47.443Z,4024.00
2018-08-19T13:00:40.413Z,4036.00
2018-08-19T13:01:40.395Z,4040.00
2018-08-19T13:03:33.334Z,4036.00
2018-08-19T13:04:33.342Z,4036.00
2018-08-19T13:06:26.266Z,4004.00
2018-08-19T13:07:26.292Z,3996.00
2018-08-19T13:09:19.251Z,3988.00
2018-08-19T13:10:19.302Z,3980.00
2018-08-19T13:12:12.177Z,3960.00
2018-08-19T13:13:12.204Z,3968.00
2018-08-19T13:15:05.147Z,3952.00
2018-08-19T13:16:05.205Z,3932.00
2018-08-19T13:17:58.083Z,3912.00
2018-08-19T13:18:58.115Z,3912.00
2018-08-19T13:20:51.046Z,3904.00
2018-08-19T13:21:51.055Z,3888.00
2018-08-19T13:23:43.994Z,3860.00
2018-08-19T13:24:44.012Z,3848.00
2018-08-19T13:26:37.925Z,3792.00
2018-08-19T13:27:37.953Z,3768.00
2018-08-19T13:29:30.901Z,3728.00
2018-08-19T13:30:30.908Z,3708.00
2018-08-19T13:32:23.838Z,3668.00
2018-08-19T13:33:23.866Z,3656.00
2018-08-19T13:35:16.817Z,3628.00
2018-08-19T13:36:16.838Z,3608.00
2018-08-19T13:38:09.770Z,3580.00
2018-08-19T13:39:09.779Z,3572.00
2018-08-19T13:41:02.722Z,3552.00
2018-08-19T13:42:02.747Z,3556.00
2018-08-19T13:43:55.681Z,3540.00
2018-08-19T13:44:55.688Z,3536.00
2018-08-19T13:46:48.609Z,3508.00
2018-08-19T13:47:48.640Z,3500.00
2018-08-19T13:49:41.588Z,3492.00
2018-08-19T13:50:41.592Z,3484.00
2018-08-19T13:52:34.543Z,3484.00
2018-08-19T13:53:34.552Z,3500.00
2018-08-19T13:55:27.497Z,3484.00
2018-08-19T13:56:27.507Z,3464.00
2018-08-19T13:58:20.435Z,3448.00
2018-08-19T13:59:20.458Z,3432.00
2018-08-19T14:01:13.429Z,3416.00
2018-08-19T14:02:13.431Z,3392.00
2018-08-19T14:04:06.371Z,3364.00
2018-08-19T14:05:06.382Z,3360.00
2018-08-19T14:06:59.311Z,3352.00
2018-08-19T14:07:59.331Z,3324.00
2018-08-19T14:09:52.280Z,3312.00
2018-08-19T14:10:52.281Z,3308.00
2018-08-19T14:12:45.210Z,3284.00
2018-08-19T14:13:45.233Z,3276.00
2018-08-19T14:15:38.196Z,3252.00
2018-08-19T14:16:38.195Z,3244.00
2018-08-19T14:18:31.123Z,3232.00
2018-08-19T14:19:31.149Z,3224.00
2018-08-19T14:21:24.096Z,3212.00
2018-08-19T14:22:24.101Z,3228.00
2018-08-19T14:24:17.044Z,3232.00
2018-08-19T14:25:17.055Z,3220.00
2018-08-19T14:27:09.982Z,3204.00
2018-08-19T14:28:10.008Z,3196.00
2018-08-19T14:30:03.061Z,3180.00
2018-08-19T14:31:02.958Z,3172.00
2018-08-19T14:32:55.886Z,3152.00
2018-08-19T14:33:55.913Z,3152.00
2018-08-19T14:35:48.860Z,3148.00
2018-08-19T14:36:48.865Z,3160.00
2018-08-19T14:38:41.790Z,3156.00
2018-08-19T14:39:41.818Z,3152.00
2018-08-19T14:41:34.762Z,3148.00
2018-08-19T14:42:34.772Z,3140.00
2018-08-19T14:44:27.712Z,3140.00
2018-08-19T14:45:27.719Z,3144.00
2018-08-19T14:47:20.643Z,3144.00
2018-08-19T14:48:20.669Z,3148.00
2018-08-19T14:50:13.612Z,3156.00
2018-08-19T14:51:13.621Z,3148.00
2018-08-19T14:53:06.547Z,3140.00
2018-08-19T14:54:06.576Z,3140.00
2018-08-19T14:55:59.521Z,3144.00
2018-08-19T14:56:59.529Z,3156.00
2018-08-19T14:58:52.448Z,3144.00
2018-08-19T14:59:52.479Z,3140.00
2018-08-19T15:01:45.418Z,3108.00
2018-08-19T15:02:45.428Z,3104.00
2018-08-19T15:04:38.378Z,3096.00
2018-08-19T15:05:38.384Z,3088.00
2018-08-19T15:07:31.305Z,3064.00
2018-08-19T15:08:31.335Z,3056.00
2018-08-19T15:10:24.283Z,3036.00
2018-08-19T15:11:24.289Z,3024.00
2018-08-19T15:13:17.222Z,3000.00
2018-08-19T15:14:17.242Z,3000.00
2018-08-19T15:16:10.192Z,2992.00
2018-08-19T15:17:10.204Z,3000.00
2018-08-19T15:19:03.142Z,3000.00
2018-08-19T15:20:03.186Z,3004.00
2018-08-19T15:21:56.114Z,2984.00
2018-08-19T15:22:56.125Z,2972.00
2018-08-19T15:24:49.105Z,2964.00
2018-08-19T15:25:49.113Z,2968.00
2018-08-19T15:27:42.037Z,2956.00
2018-08-19T15:28:42.066Z,2948.00
2018-08-19T15:30:35.076Z,2972.00
2018-08-19T15:31:35.024Z,2972.00
2018-08-19T15:33:27.964Z,2960.00
2018-08-19T15:34:27.977Z,2956.00
2018-08-19T15:36:20.928Z,2948.00
2018-08-19T15:37:20.933Z,2944.00
2018-08-19T15:39:13.865Z,2940.00
2018-08-19T15:40:13.891Z,2936.00
2018-08-19T15:42:06.834Z,2952.00
2018-08-19T15:43:06.844Z,2952.00
2018-08-19T15:44:59.814Z,2948.00
2018-08-19T15:45:59.795Z,2940.00
2018-08-19T15:47:52.729Z,2936.00
2018-08-19T15:48:52.751Z,2940.00
2018-08-19T15:50:45.702Z,2948.00
2018-08-19T15:51:45.700Z,2940.00
2018-08-19T15:53:38.633Z,2924.00
2018-08-19T15:54:38.660Z,2920.00
2018-08-19T15:56:31.610Z,2908.00
2018-08-19T15:57:31.614Z,2888.00
2018-08-19T15:59:24.538Z,2868.00
2018-08-19T16:00:24.575Z,2860.00
2018-08-19T16:02:17.508Z,2864.00
2018-08-19T16:03:17.526Z,2868.00
2018-08-19T16:05:10.460Z,2868.00
2018-08-19T16:06:10.469Z,2860.00
2018-08-19T16:08:03.411Z,2856.00
2018-08-19T16:09:03.442Z,2852.00
2018-08-19T16:10:56.415Z,2836.00
2018-08-19T16:11:56.393Z,2828.00
2018-08-19T16:13:49.319Z,2824.00
2018-08-19T16:14:49.357Z,2820.00
2018-08-19T16:16:42.301Z,2820.00
2018-08-19T16:17:42.302Z,2820.00
2018-08-19T16:19:35.228Z,2824.00
2018-08-19T16:20:35.258Z,2816.00
2018-08-19T16:22:28.209Z,2804.00
2018-08-19T16:23:28.216Z,2804.00
2018-08-19T16:25:21.153Z,2796.00
2018-08-19T16:26:21.162Z,2792.00
2018-08-19T16:28:14.246Z,2792.00
2018-08-19T16:29:14.276Z,2792.00
2018-08-19T16:31:07.217Z,2788.00
2018-08-19T16:32:07.252Z,2788.00
2018-08-19T16:34:00.262Z,2788.00
2018-08-19T16:35:00.190Z,2780.00
2018-08-19T16:36:53.127Z,2788.00
2018-08-19T16:37:53.126Z,2796.00
2018-08-19T16:39:46.075Z,2812.00
2018-08-19T16:40:46.103Z,2820.00
2018-08-19T16:42:39.050Z,2836.00
2018-08-19T16:43:39.052Z,2848.00
2018-08-19T16:45:31.995Z,2876.00
2018-08-19T16:46:32.006Z,2896.00
2018-08-19T16:48:24.920Z,2924.00
2018-08-19T16:49:24.952Z,2940.00
2018-08-19T16:51:17.899Z,2968.00
2018-08-19T16:52:17.900Z,2980.00
2018-08-19T16:54:10.820Z,3012.00
2018-08-19T16:55:10.851Z,3024.00
2018-08-19T16:57:03.842Z,3048.00
2018-08-19T16:58:03.801Z,3064.00
2018-08-19T16:59:56.722Z,3080.00
2018-08-19T17:00:56.751Z,3080.00
2018-08-19T17:02:49.786Z,3076.00
2018-08-19T17:03:49.701Z,3076.00
2018-08-19T17:05:42.643Z,3060.00
2018-08-19T17:06:42.655Z,3040.00
2018-08-19T17:08:35.623Z,3008.00
2018-08-19T17:09:35.628Z,2988.00
2018-08-19T17:11:28.571Z,2952.00
2018-08-19T17:12:28.579Z,2928.00
2018-08-19T17:14:21.499Z,2884.00
2018-08-19T17:15:21.530Z,2860.00
2018-08-19T17:17:14.476Z,2824.00
2018-08-19T17:18:14.480Z,2808.00
2018-08-19T17:20:07.406Z,2764.00
2018-08-19T17:21:07.444Z,2736.00
2018-08-19T17:23:00.414Z,2696.00
2018-08-19T17:24:00.422Z,2676.00
2018-08-19T17:25:53.373Z,2636.00
2018-08-19T17:26:53.412Z,2616.00
2018-08-19T17:28:46.295Z,2568.00
2018-08-19T17:29:46.323Z,2548.00
2018-08-19T17:31:39.274Z,2508.00
2018-08-19T17:32:39.341Z,2488.00
2018-08-19T17:34:32.203Z,2456.00
2018-08-19T17:35:32.234Z,2432.00
2018-08-19T17:37:25.183Z,2384.00
2018-08-19T17:38:25.183Z,2356.00
2018-08-19T17:40:18.111Z,2304.00
2018-08-19T17:41:18.140Z,2268.00
2018-08-19T17:43:11.079Z,2200.00
2018-08-19T17:44:11.088Z,2168.00
2018-08-19T17:46:04.046Z,2096.00
2018-08-19T17:47:04.042Z,2060.00